Air Navigation Services of Czech Republic
Airport: LKPD Updated:  25.03.2017 07:06:11  UTC
 METAR LKPD 25.03. 07:00 ...
METAR LKPD 250700Z VRB01KT CAVOK 02/00 Q1030 NOSIG =
 TAF LKPD 25.03. 05:00 ...
TAF LKPD 250500Z 2506/2606 VRB02KT CAVOK      BECMG 2510/2513 30006KT      BECMG 2520/2522 04004KT=